createdAt,value
2019-05-30T00:04:23.148Z,11.30
2019-05-30T00:08:26.232Z,11.10
2019-05-30T00:13:23.800Z,11.10
2019-05-30T00:22:42.518Z,11.00
2019-05-30T00:32:57.211Z,11.00
2019-05-30T00:37:55.622Z,10.90
2019-05-30T00:48:09.688Z,10.80
2019-05-30T00:53:07.378Z,11.00
2019-05-30T00:58:05.044Z,10.70
2019-05-30T01:03:04.811Z,10.60
2019-05-30T01:07:09.287Z,11.00
2019-05-30T01:12:07.399Z,10.70
2019-05-30T01:22:21.145Z,10.60
2019-05-30T01:32:34.502Z,10.50
2019-05-30T01:37:31.939Z,10.50
2019-05-30T01:47:45.951Z,10.60
2019-05-30T01:52:43.588Z,10.50
2019-05-30T01:57:41.229Z,10.60
2019-05-30T02:02:38.885Z,10.60
2019-05-30T02:07:37.005Z,10.50
2019-05-30T02:11:39.956Z,10.30
2019-05-30T02:16:37.672Z,10.20
2019-05-30T02:21:35.264Z,10.20
2019-05-30T02:26:33.688Z,10.20
2019-05-30T02:36:47.456Z,10.20
2019-05-30T02:45:08.315Z,10.30
2019-05-30T02:55:23.300Z,10.40
2019-05-30T03:00:20.735Z,10.20
2019-05-30T03:05:18.404Z,10.20
2019-05-30T03:09:22.702Z,10.40
2019-05-30T03:14:20.451Z,10.10
2019-05-30T03:24:34.062Z,10.10
2019-05-30T03:34:47.935Z,10.30
2019-05-30T03:39:45.508Z,10.50
2019-05-30T03:44:24.850Z,10.40
2019-05-30T03:49:22.545Z,10.50
2019-05-30T03:54:20.239Z,10.60
2019-05-30T04:04:33.562Z,10.70
2019-05-30T04:13:55.634Z,10.80
2019-05-30T04:18:53.056Z,10.70
2019-05-30T04:22:56.348Z,10.80
2019-05-30T04:33:19.390Z,10.90
2019-05-30T04:38:10.543Z,10.70
2019-05-30T04:42:49.790Z,10.80
2019-05-30T04:46:53.012Z,10.80
2019-05-30T04:51:51.222Z,10.90
2019-05-30T04:56:49.092Z,10.80
2019-05-30T05:01:28.891Z,11.10
2019-05-30T05:06:27.060Z,11.00
2019-05-30T05:10:30.170Z,11.10
2019-05-30T05:15:27.890Z,11.10
2019-05-30T05:25:43.190Z,11.30
2019-05-30T05:30:42.352Z,11.40
2019-05-30T05:35:40.098Z,11.50
2019-05-30T05:43:48.918Z,11.40
2019-05-30T05:47:50.221Z,11.60
2019-05-30T05:51:51.732Z,11.60
2019-05-30T05:55:55.632Z,11.80
2019-05-30T05:59:56.949Z,11.80
2019-05-30T06:04:12.139Z,11.90
2019-05-30T06:08:02.168Z,12.00
2019-05-30T06:12:03.775Z,12.10
2019-05-30T06:16:05.604Z,12.30
2019-05-30T06:25:14.164Z,12.40
2019-05-30T06:35:29.489Z,12.60
2019-05-30T06:40:30.411Z,12.70
2019-05-30T06:45:28.279Z,12.70
2019-05-30T06:55:42.460Z,13.20
2019-05-30T07:05:57.380Z,13.40
2019-05-30T07:10:55.718Z,13.50
2019-05-30T07:14:57.541Z,13.40
2019-05-30T07:19:55.370Z,13.50
2019-05-30T07:23:57.186Z,13.60
2019-05-30T07:28:54.566Z,13.70
2019-05-30T07:33:52.020Z,13.70
2019-05-30T07:44:06.572Z,13.70
2019-05-30T07:54:20.286Z,13.90
2019-05-30T07:59:18.097Z,14.00
2019-05-30T08:09:32.865Z,14.10
2019-05-30T08:13:35.255Z,14.40
2019-05-30T08:23:49.330Z,14.50
2019-05-30T08:28:46.818Z,14.80
2019-05-30T08:39:00.583Z,15.20
2019-05-30T08:49:14.469Z,15.50
2019-05-30T08:54:13.969Z,15.70
2019-05-30T09:04:09.434Z,15.70
2019-05-30T09:09:07.415Z,15.60
2019-05-30T09:13:09.316Z,15.40
2019-05-30T09:18:07.405Z,15.20
2019-05-30T09:22:09.283Z,15.10
2019-05-30T09:32:23.252Z,15.10
2019-05-30T09:42:37.302Z,15.20
2019-05-30T09:56:23.305Z,14.80
2019-05-30T10:01:25.981Z,14.50
2019-05-30T10:06:35.661Z,14.50
2019-05-30T10:11:38.245Z,14.50
2019-05-30T10:16:41.169Z,14.50
2019-05-30T10:21:45.456Z,14.60
2019-05-30T10:27:42.959Z,14.60
2019-05-30T10:33:40.337Z,14.40
2019-05-30T10:39:37.898Z,14.40
2019-05-30T10:45:18.193Z,14.50
2019-05-30T10:50:21.217Z,14.50
2019-05-30T10:55:24.095Z,14.50
2019-05-30T11:00:48.933Z,14.50
2019-05-30T11:06:22.048Z,14.60
2019-05-30T11:11:24.684Z,14.80
2019-05-30T11:16:28.987Z,14.90
2019-05-30T11:21:31.611Z,15.00
2019-05-30T11:26:34.213Z,15.10
2019-05-30T11:31:37.021Z,15.20
2019-05-30T11:36:39.590Z,15.30
2019-05-30T11:41:42.199Z,15.30
2019-05-30T11:46:44.782Z,15.50
2019-05-30T11:51:50.139Z,15.70
2019-05-30T11:57:47.549Z,15.90
2019-05-30T12:03:45.287Z,16.10
2019-05-30T12:09:42.718Z,16.30
2019-05-30T12:15:40.568Z,16.30
2019-05-30T12:21:38.225Z,16.30
2019-05-30T12:26:41.294Z,16.30
2019-05-30T12:32:39.097Z,16.40
2019-05-30T12:38:36.674Z,16.40
2019-05-30T12:44:34.354Z,16.40
2019-05-30T12:50:33.580Z,16.50
2019-05-30T12:56:31.294Z,16.50
2019-05-30T13:02:10.552Z,16.60
2019-05-30T13:07:49.747Z,16.50
2019-05-30T13:13:29.017Z,16.40
2019-05-30T13:19:08.761Z,16.00
2019-05-30T13:24:11.679Z,16.00
2019-05-30T13:29:51.086Z,15.90
2019-05-30T13:35:30.616Z,15.80
2019-05-30T13:41:09.753Z,15.60
2019-05-30T13:46:48.967Z,15.70
2019-05-30T13:52:28.250Z,16.00
2019-05-30T13:58:07.831Z,16.00
2019-05-30T14:03:47.382Z,16.10
2019-05-30T14:09:29.909Z,16.20
2019-05-30T14:15:10.400Z,16.20
2019-05-30T14:20:15.418Z,16.40
2019-05-30T14:25:57.672Z,16.60
2019-05-30T14:31:36.828Z,16.60
2019-05-30T14:37:16.148Z,16.60
2019-05-30T14:42:55.256Z,16.70
2019-05-30T14:48:34.466Z,16.70
2019-05-30T14:54:14.243Z,16.70
2019-05-30T15:00:00.011Z,16.70
2019-05-30T15:05:39.447Z,16.70
2019-05-30T15:11:18.807Z,16.80
2019-05-30T15:16:57.946Z,16.80
2019-05-30T15:22:00.925Z,16.80
2019-05-30T15:27:40.172Z,16.90
2019-05-30T15:33:19.328Z,16.80
2019-05-30T15:39:01.666Z,16.90
2019-05-30T15:44:41.019Z,16.80
2019-05-30T15:50:20.185Z,16.90
2019-05-30T15:55:59.349Z,16.90
2019-05-30T16:01:39.014Z,17.00
2019-05-30T16:07:18.826Z,17.10
2019-05-30T16:12:58.379Z,17.50
2019-05-30T16:18:37.780Z,17.70
2019-05-30T16:23:41.250Z,17.80
2019-05-30T16:29:21.882Z,17.70
2019-05-30T16:35:01.200Z,17.70
2019-05-30T16:40:40.471Z,17.70
2019-05-30T16:46:20.537Z,17.60
2019-05-30T16:51:59.757Z,17.60
2019-05-30T16:57:39.099Z,17.70
2019-05-30T17:03:21.964Z,17.70
2019-05-30T17:09:01.395Z,17.60
2019-05-30T17:14:40.460Z,17.60
2019-05-30T17:20:20.519Z,17.60
2019-05-30T17:25:23.619Z,17.60
2019-05-30T17:31:02.818Z,17.60
2019-05-30T17:36:45.278Z,17.60
2019-05-30T17:42:25.593Z,17.50
2019-05-30T17:48:16.126Z,17.50
2019-05-30T17:53:49.448Z,17.50
2019-05-30T17:58:52.409Z,17.50
2019-05-30T18:04:31.831Z,17.40
2019-05-30T18:10:17.355Z,17.50
2019-05-30T18:15:56.405Z,17.50
2019-05-30T18:21:17.407Z,17.40
2019-05-30T18:26:57.135Z,17.40
2019-05-30T18:32:36.707Z,17.30
2019-05-30T18:38:17.160Z,17.40
2019-05-30T18:43:58.554Z,17.40
2019-05-30T18:49:38.172Z,17.30
2019-05-30T18:55:17.525Z,17.30
2019-05-30T19:00:56.587Z,17.30
2019-05-30T19:06:36.295Z,17.20
2019-05-30T19:12:17.048Z,17.20
2019-05-30T19:17:56.440Z,17.10
2019-05-30T19:22:59.897Z,17.10
2019-05-30T19:28:38.901Z,17.10
2019-05-30T19:34:18.019Z,17.10
2019-05-30T19:39:57.441Z,17.10
2019-05-30T19:45:36.635Z,17.10
2019-05-30T19:51:15.779Z,17.10
2019-05-30T19:56:58.011Z,17.10
2019-05-30T20:02:38.383Z,17.00
2019-05-30T20:08:18.280Z,17.00
2019-05-30T20:13:57.603Z,17.00
2019-05-30T20:19:40.043Z,17.00
2019-05-30T20:24:43.209Z,16.90
2019-05-30T20:30:22.292Z,16.90
2019-05-30T20:36:01.233Z,16.90
2019-05-30T20:41:40.978Z,16.90
2019-05-30T20:47:20.637Z,16.90
2019-05-30T20:52:59.903Z,16.80
2019-05-30T20:58:42.203Z,16.80
2019-05-30T21:04:21.147Z,16.70
2019-05-30T21:10:00.577Z,16.60
2019-05-30T21:15:40.053Z,16.60
2019-05-30T21:21:19.215Z,16.50
2019-05-30T21:26:22.216Z,16.50
2019-05-30T21:32:01.431Z,16.40
2019-05-30T21:37:41.797Z,16.40
2019-05-30T21:43:21.568Z,16.40
2019-05-30T21:49:04.038Z,16.40
2019-05-30T21:54:43.814Z,16.30
2019-05-30T22:00:15.402Z,16.30
2019-05-30T22:05:54.622Z,16.20
2019-05-30T22:11:33.929Z,16.20
2019-05-30T22:17:13.096Z,16.20
2019-05-30T22:22:16.024Z,16.10
2019-05-30T22:27:58.218Z,16.00
2019-05-30T22:33:40.545Z,16.10
2019-05-30T22:39:19.959Z,16.00
2019-05-30T22:44:59.350Z,16.10
2019-05-30T22:50:38.634Z,16.00
2019-05-30T22:56:18.229Z,16.00
2019-05-30T23:01:57.688Z,15.90
2019-05-30T23:07:37.028Z,15.90
2019-05-30T23:13:16.234Z,15.90
2019-05-30T23:18:56.740Z,15.80
2019-05-30T23:23:59.907Z,15.80
2019-05-30T23:29:39.228Z,15.70
2019-05-30T23:35:18.648Z,15.60
2019-05-30T23:40:59.173Z,15.60
2019-05-30T23:46:38.780Z,15.60
2019-05-30T23:52:21.002Z,15.50
2019-05-30T23:58:00.794Z,15.50
